Time;durP1;ratioP1;P1;durP2;ratioP2;P2;SDS_P1;SDS_P2;PMS_P1;PMS_P2;Temp;Humidity;BMP_temperature;BMP_pressure;BME280_temperature;BME280_humidity;BME280_pressure;Samples;Min_cycle;Max_cycle;Signal;HPM_P1;HPM_P2
2022/06/20 00:00:09;;;;;;;9.38;2.60;;;;;;;11.85;89.93;101600.94;5054453;28;20500;-70
2022/06/20 00:02:41;;;;;;;12.65;2.42;;;;;;;11.79;90.79;101604.97;5053472;28;20083;-69
2022/06/20 00:05:06;;;;;;;10.20;2.38;;;;;;;11.73;91.18;101605.47;5054409;28;20029;-70
2022/06/20 00:07:32;;;;;;;9.55;2.03;;;;;;;11.68;91.58;101613.00;5054676;28;20109;-69
2022/06/20 00:09:57;;;;;;;13.68;2.55;;;;;;;11.64;92.02;101612.44;5054658;28;20120;-69
2022/06/20 00:12:25;;;;;;;8.68;2.17;;;;;;;11.67;92.78;101610.47;5054061;28;20082;-69
2022/06/20 00:14:55;;;;;;;14.07;3.20;;;;;;;11.69;93.01;101613.84;5054340;28;20104;-69
2022/06/20 00:17:20;;;;;;;8.10;2.30;;;;;;;11.72;93.07;101617.13;5054121;28;20036;-69
2022/06/20 00:19:46;;;;;;;5.85;2.17;;;;;;;11.72;93.08;101621.59;5054257;28;20029;-69
2022/06/20 00:22:11;;;;;;;12.00;2.92;;;;;;;11.73;93.07;101623.28;5052498;28;20036;-70
2022/06/20 00:24:37;;;;;;;9.80;2.55;;;;;;;11.70;93.03;101636.88;5054146;28;20041;-69
2022/06/20 00:27:06;;;;;;;12.52;2.55;;;;;;;11.63;93.25;101629.38;5054196;28;20055;-69
2022/06/20 00:29:41;;;;;;;13.10;2.67;;;;;;;11.59;94.01;101637.78;5052855;28;20035;-69
2022/06/20 00:32:08;;;;;;;8.43;2.35;;;;;;;11.51;94.58;101635.75;5054455;28;20465;-69
2022/06/20 00:34:34;;;;;;;8.38;2.05;;;;;;;11.43;94.38;101636.34;5054321;28;20047;-69
2022/06/20 00:37:00;;;;;;;14.65;2.88;;;;;;;11.38;94.72;101645.69;5054444;28;20071;-69
2022/06/20 00:39:26;;;;;;;13.48;2.50;;;;;;;11.31;94.46;101642.66;5053508;28;20473;-69
2022/06/20 00:41:51;;;;;;;8.65;2.00;;;;;;;11.26;94.62;101640.38;5054114;28;20036;-69
2022/06/20 00:44:26;;;;;;;12.20;2.83;;;;;;;11.19;94.26;101641.84;5053618;28;20119;-69
2022/06/20 00:46:56;;;;;;;8.93;2.55;;;;;;;11.11;94.77;101639.81;5053834;28;20029;-69
2022/06/20 00:49:29;;;;;;;11.82;2.55;;;;;;;11.07;95.18;101648.16;5053340;28;20330;-69
2022/06/20 00:52:20;;;;;;;8.32;2.28;;;;;;;11.03;95.24;101644.03;5053966;28;20029;-69
2022/06/20 00:54:48;;;;;;;12.93;2.05;;;;;;;10.98;95.45;101632.94;5036294;28;20036;-69
2022/06/20 00:57:27;;;;;;;6.88;2.00;;;;;;;10.95;95.39;101647.31;5053126;28;20051;-69
2022/06/20 01:00:18;;;;;;;11.63;1.92;;;;;;;10.90;95.51;101653.00;5052764;28;20481;-69
2022/06/20 01:02:48;;;;;;;10.80;2.10;;;;;;;10.88;95.59;101664.75;5053430;28;20021;-70
2022/06/20 01:05:21;;;;;;;10.75;2.40;;;;;;;10.88;95.75;101675.41;5053368;28;20099;-69
2022/06/20 01:07:59;;;;;;;9.02;1.80;;;;;;;10.88;96.28;101681.59;5053854;28;20424;-70
2022/06/20 01:10:27;;;;;;;10.25;1.90;;;;;;;10.93;96.53;101679.41;5053006;28;20370;-70
2022/06/20 01:13:05;;;;;;;6.32;2.00;;;;;;;11.00;96.43;101687.75;5052172;28;20044;-70
2022/06/20 01:15:40;;;;;;;10.43;2.20;;;;;;;11.07;96.61;101702.25;5053007;28;20040;-70
2022/06/20 01:18:16;;;;;;;8.65;2.00;;;;;;;11.14;96.24;101707.09;5053426;28;20036;-70
2022/06/20 01:20:43;;;;;;;11.30;2.20;;;;;;;11.22;96.11;101716.19;5052176;28;20024;-70
2022/06/20 01:23:11;;;;;;;11.35;1.70;;;;;;;11.29;95.71;101720.06;5053334;28;20064;-69
2022/06/20 01:25:54;;;;;;;6.63;1.92;;;;;;;11.36;95.76;101716.91;5052908;28;20033;-70
2022/06/20 01:28:26;;;;;;;7.60;2.13;;;;;;;11.42;95.02;101711.06;5052877;28;20037;-70
2022/06/20 01:30:51;;;;;;;13.07;2.05;;;;;;;11.46;94.44;101709.88;5053036;28;20032;-69
2022/06/20 01:33:20;;;;;;;4.57;1.60;;;;;;;11.50;94.08;101692.66;5052758;28;20041;-71
2022/06/20 01:38:32;;;;;;;11.40;2.35;;;;;;;11.58;92.87;101689.38;5052324;28;20056;-70
2022/06/20 01:43:46;;;;;;;9.23;2.13;;;;;;;11.63;92.15;101682.69;5053138;28;20614;-69
2022/06/20 01:46:13;;;;;;;8.30;1.92;;;;;;;11.65;92.71;101671.91;5052053;28;20060;-70
2022/06/20 01:48:52;;;;;;;7.03;1.70;;;;;;;11.66;92.65;101676.28;5052415;28;20126;-70
2022/06/20 01:51:22;;;;;;;8.93;1.92;;;;;;;11.67;92.61;101685.13;5051221;28;20028;-71
2022/06/20 01:53:50;;;;;;;8.00;1.88;;;;;;;11.63;91.69;101681.88;5052980;28;20029;-70
2022/06/20 01:56:18;;;;;;;13.45;1.73;;;;;;;11.61;90.66;101679.31;5052443;28;20021;-70
2022/06/20 01:58:53;;;;;;;8.68;2.05;;;;;;;11.56;90.02;101660.19;5052730;28;20025;-70
2022/06/20 02:01:18;;;;;;;8.05;2.00;;;;;;;11.53;89.03;101672.91;5050939;28;20115;-71
2022/06/20 02:03:45;;;;;;;9.55;1.85;;;;;;;11.46;88.33;101670.75;5052334;28;20530;-70
2022/06/20 02:06:14;;;;;;;6.25;1.48;;;;;;;11.41;88.22;101675.59;5052684;28;20045;-70
2022/06/20 02:08:41;;;;;;;9.88;1.83;;;;;;;11.35;88.29;101668.09;5052105;28;20031;-68
2022/06/20 02:11:12;;;;;;;5.72;1.67;;;;;;;11.30;88.02;101659.66;5052547;28;20024;-71
2022/06/20 02:13:41;;;;;;;7.57;1.50;;;;;;;11.24;88.05;101654.78;5052300;28;20032;-70
2022/06/20 02:16:11;;;;;;;9.57;1.77;;;;;;;11.17;88.31;101653.63;5052668;28;20311;-69
2022/06/20 02:18:40;;;;;;;6.55;2.03;;;;;;;11.09;88.62;101646.22;5052091;28;20036;-69
2022/06/20 02:21:12;;;;;;;6.97;1.73;;;;;;;11.04;89.07;101656.41;5052550;28;20029;-69
2022/06/20 02:23:39;;;;;;;;;;;;;;;11.04;88.99;101659.06;5052539;28;20032;-69
2022/06/20 02:26:07;;;;;;;5.10;1.55;;;;;;;11.05;89.12;101661.59;5052466;28;19913;-69
2022/06/20 02:28:45;;;;;;;7.28;1.80;;;;;;;11.06;89.30;101663.31;5052052;28;20108;-69
2022/06/20 02:31:11;;;;;;;4.10;1.50;;;;;;;11.06;88.95;101652.66;5052283;28;20033;-68
2022/06/20 02:33:37;;;;;;;10.38;1.70;;;;;;;11.04;88.83;101648.41;5051815;28;20385;-69
2022/06/20 02:36:05;;;;;;;10.70;2.28;;;;;;;10.98;89.31;101644.41;5052044;28;20071;-70
2022/06/20 02:38:30;;;;;;;5.85;1.52;;;;;;;10.91;89.49;101648.53;5051867;28;20116;-70
2022/06/20 02:40:57;;;;;;;8.48;1.77;;;;;;;10.82;90.15;101647.44;5052198;28;20129;-69
2022/06/20 02:43:46;;;;;;;10.50;1.58;;;;;;;10.75;90.75;101655.06;5051609;28;20029;-73
2022/06/20 02:46:16;;;;;;;10.77;1.98;;;;;;;10.67;90.75;101665.47;5050777;28;20473;-69
2022/06/20 02:48:45;;;;;;;3.95;1.85;;;;;;;10.58;91.04;101659.06;5050349;28;20457;-69
2022/06/20 02:51:15;;;;;;;2.97;1.30;;;;;;;10.50;91.73;101650.81;5050734;28;20430;-70
2022/06/20 02:53:43;;;;;;;5.97;1.50;;;;;;;10.41;91.74;101656.84;5051644;28;20075;-70
2022/06/20 02:56:14;;;;;;;9.15;2.00;;;;;;;10.35;93.31;101654.66;5051897;28;20498;-69
2022/06/20 02:58:44;;;;;;;5.80;1.80;;;;;;;10.29;93.62;101652.44;5055012;28;20029;-69
2022/06/20 03:01:21;;;;;;;6.72;1.90;;;;;;;10.21;93.81;101647.69;5055741;28;20033;-70
2022/06/20 03:03:51;;;;;;;4.45;1.65;;;;;;;10.13;94.12;101647.44;5055693;28;20037;-69
2022/06/20 03:06:26;;;;;;;9.70;1.73;;;;;;;10.07;94.85;101646.09;5054669;28;20029;-69
2022/06/20 03:08:54;;;;;;;4.65;1.83;;;;;;;10.01;95.23;101638.56;5054792;28;20511;-69
2022/06/20 03:11:21;;;;;;;3.80;1.60;;;;;;;9.98;95.27;101636.16;5055995;28;20496;-69
2022/06/20 03:13:47;;;;;;;5.00;1.55;;;;;;;9.95;96.04;101644.34;5055121;28;20033;-69
2022/06/20 03:16:14;;;;;;;4.50;1.63;;;;;;;9.90;96.10;101647.38;5054292;28;20412;-70
2022/06/20 03:18:42;;;;;;;8.18;1.70;;;;;;;9.86;96.27;101644.06;5055199;28;20029;-71
2022/06/20 03:21:09;;;;;;;6.20;1.75;;;;;;;9.84;96.79;101637.19;5054364;28;20170;-70
2022/06/20 03:23:35;;;;;;;8.75;1.70;;;;;;;9.81;96.97;101643.56;5055354;28;20072;-70
2022/06/20 03:26:05;;;;;;;8.45;1.85;;;;;;;9.78;97.47;101643.81;5055698;28;20037;-70
2022/06/20 03:28:33;;;;;;;10.98;2.65;;;;;;;9.80;98.08;101636.56;5055294;28;20078;-70
2022/06/20 03:31:00;;;;;;;10.27;2.22;;;;;;;9.84;98.21;101638.03;5055136;28;20506;-70
2022/06/20 03:33:26;;;;;;;4.28;1.85;;;;;;;9.85;98.26;101637.06;5055503;28;20029;-70
2022/06/20 03:35:57;;;;;;;6.93;2.10;;;;;;;9.87;98.12;101634.31;5053435;28;20032;-70
2022/06/20 03:38:23;;;;;;;7.80;2.50;;;;;;;9.88;98.30;101634.19;5054067;28;20049;-70
2022/06/20 03:40:49;;;;;;;9.07;2.20;;;;;;;9.89;98.54;101643.84;5054684;28;20128;-70
2022/06/20 03:43:19;;;;;;;7.93;2.88;;;;;;;9.92;98.88;101645.44;5055093;28;20033;-70
2022/06/20 03:45:49;;;;;;;6.57;2.10;;;;;;;9.99;98.76;101643.16;5054909;28;20033;-70
2022/06/20 03:48:19;;;;;;;9.77;2.42;;;;;;;10.07;99.10;101641.59;5053689;28;20033;-70
2022/06/20 03:50:57;;;;;;;8.48;2.28;;;;;;;10.15;98.79;101645.50;5053417;28;20094;-70
2022/06/20 03:53:30;;;;;;;12.55;2.50;;;;;;;10.20;98.23;101640.69;5055088;28;20060;-70
2022/06/20 03:56:05;;;;;;;13.48;2.65;;;;;;;10.26;97.86;101645.53;5055067;28;20107;-69
2022/06/20 03:58:37;;;;;;;11.93;2.58;;;;;;;10.29;97.42;101634.66;5054922;28;20029;-69
2022/06/20 04:01:10;;;;;;;8.38;2.13;;;;;;;10.36;97.06;101643.91;5053910;28;20039;-69
2022/06/20 04:03:47;;;;;;;9.43;2.45;;;;;;;10.38;96.49;101651.75;5054560;28;20029;-71
2022/06/20 04:06:34;;;;;;;10.50;2.45;;;;;;;10.41;96.40;101656.84;5055068;28;20033;-70
2022/06/20 04:12:01;;;;;;;7.88;2.20;;;;;;;10.42;95.98;101653.22;5054413;28;20268;-69
2022/06/20 04:14:38;;;;;;;7.50;2.17;;;;;;;10.47;95.99;101652.88;5054620;28;20028;-71
2022/06/20 04:20:43;;;;;;;7.60;1.83;;;;;;;10.66;95.04;101655.78;5053776;28;20047;-71
2022/06/20 04:23:15;;;;;;;10.00;2.42;;;;;;;10.73;94.42;101653.50;5053917;28;20048;-70
2022/06/20 04:26:10;;;;;;;9.98;2.95;;;;;;;10.86;93.66;101658.72;5054008;28;20025;-70
2022/06/20 04:28:40;;;;;;;7.70;2.20;;;;;;;10.96;92.79;101673.00;5053976;28;20071;-71
2022/06/20 04:31:25;;;;;;;6.13;1.85;;;;;;;11.02;92.20;101669.00;5054456;28;20496;-70
2022/06/20 04:34:19;;;;;;;10.35;2.30;;;;;;;11.07;92.01;101667.66;5053595;28;20025;-70
2022/06/20 04:36:58;;;;;;;10.77;2.10;;;;;;;11.16;92.19;101675.88;5052600;28;20049;-70
2022/06/20 04:39:37;;;;;;;9.60;2.15;;;;;;;11.28;92.00;101678.38;5054290;28;20044;-70
2022/06/20 04:42:17;;;;;;;9.48;2.30;;;;;;;11.46;91.12;101670.75;5054462;28;20024;-70
2022/06/20 04:44:49;;;;;;;9.00;2.33;;;;;;;11.58;90.23;101679.53;5053797;28;20037;-70
2022/06/20 04:47:29;;;;;;;10.63;2.80;;;;;;;11.67;90.06;101680.63;5054309;28;20124;-70
2022/06/20 04:49:55;;;;;;;12.43;2.83;;;;;;;11.77;90.08;101681.56;5053775;28;20033;-70
2022/06/20 04:52:26;;;;;;;7.57;2.63;;;;;;;11.86;90.03;101677.28;5052781;28;20031;-71
2022/06/20 04:54:52;;;;;;;6.53;2.57;;;;;;;11.92;89.54;101679.44;5053684;28;20048;-71
2022/06/20 04:57:18;;;;;;;8.43;2.55;;;;;;;11.96;89.35;101678.25;5053908;28;20291;-70
2022/06/20 04:59:44;;;;;;;9.32;2.65;;;;;;;12.05;88.85;101683.81;5053470;28;20477;-69
2022/06/20 05:02:15;;;;;;;8.85;2.42;;;;;;;12.14;88.31;101677.69;5053596;28;20025;-69
2022/06/20 05:04:44;;;;;;;6.90;2.35;;;;;;;12.23;87.69;101674.25;5053514;28;20063;-70
2022/06/20 05:07:20;;;;;;;9.52;2.55;;;;;;;12.31;86.12;101676.25;5053676;28;20090;-70
2022/06/20 05:09:53;;;;;;;9.60;2.33;;;;;;;12.39;84.85;101673.81;5053154;28;20029;-70
2022/06/20 05:12:28;;;;;;;8.65;2.78;;;;;;;12.47;83.26;101683.81;5053597;28;20029;-70
2022/06/20 05:15:05;;;;;;;7.85;2.45;;;;;;;12.50;82.42;101680.88;5051933;28;20116;-70
2022/06/20 05:17:34;;;;;;;8.02;2.25;;;;;;;12.57;82.01;101687.41;5053467;28;20441;-70
2022/06/20 05:20:09;;;;;;;6.97;2.72;;;;;;;12.64;81.91;101685.88;5052260;28;20084;-70
2022/06/20 05:22:42;;;;;;;8.15;2.25;;;;;;;12.68;81.32;101687.31;5053560;28;20021;-70
2022/06/20 05:25:11;;;;;;;11.80;2.65;;;;;;;12.65;81.56;101682.22;5053716;28;20070;-70
2022/06/20 05:27:48;;;;;;;14.75;2.60;;;;;;;12.59;81.51;101693.44;5052162;28;20037;-69
2022/06/20 05:30:18;;;;;;;8.82;2.47;;;;;;;12.52;80.90;101697.59;5053133;28;20427;-69
2022/06/20 05:32:51;;;;;;;12.55;2.47;;;;;;;12.47;80.72;101694.50;5051294;28;20139;-69
2022/06/20 05:35:25;;;;;;;9.15;2.50;;;;;;;12.43;81.59;101703.75;5053171;28;20029;-70
2022/06/20 05:38:03;;;;;;;13.63;3.28;;;;;;;12.46;81.56;101706.97;5052951;28;20064;-70
2022/06/20 05:40:49;;;;;;;11.20;2.83;;;;;;;12.56;81.74;101700.88;5053276;28;20484;-70
2022/06/20 05:43:21;;;;;;;9.82;2.50;;;;;;;12.67;81.29;101707.00;5051864;28;20025;-70
2022/06/20 05:45:52;;;;;;;9.43;2.42;;;;;;;12.86;81.61;101708.91;5052685;28;20037;-70
2022/06/20 05:48:22;;;;;;;17.80;3.28;;;;;;;13.09;80.78;101707.88;5053064;28;20040;-70
2022/06/20 05:51:02;;;;;;;10.15;3.03;;;;;;;13.43;79.95;101705.78;5052541;28;20028;-71
2022/06/20 05:53:34;;;;;;;7.55;2.42;;;;;;;13.74;78.56;101711.06;5052522;28;20473;-70
2022/06/20 05:56:03;;;;;;;10.38;2.67;;;;;;;14.06;78.03;101713.50;5052184;28;20025;-70
2022/06/20 05:58:32;;;;;;;12.38;3.28;;;;;;;14.44;77.51;101719.78;5052689;28;20028;-70
2022/06/20 06:01:03;;;;;;;10.88;2.92;;;;;;;14.76;74.09;101725.81;5052208;28;20111;-71
2022/06/20 06:03:34;;;;;;;;;;;;;;;14.88;72.78;101723.81;5052810;28;20021;-71
2022/06/20 06:06:08;;;;;;;12.98;2.63;;;;;;;14.83;70.53;101726.94;5052381;28;20410;-70
2022/06/20 06:08:42;;;;;;;11.55;2.80;;;;;;;14.47;70.11;101718.66;5052847;28;20040;-70
2022/06/20 06:11:22;;;;;;;9.80;2.80;;;;;;;14.15;71.39;101733.19;5052173;28;20424;-70
2022/06/20 06:14:08;;;;;;;7.68;2.38;;;;;;;14.05;73.20;101727.84;5051125;28;20480;-73
2022/06/20 06:16:49;;;;;;;10.23;2.58;;;;;;;14.25;73.10;101744.72;5052339;28;20108;-70
2022/06/20 06:19:21;;;;;;;10.88;2.50;;;;;;;14.45;71.48;101744.72;5052284;28;20029;-71
2022/06/20 06:21:48;;;;;;;8.85;2.67;;;;;;;14.56;71.09;101757.13;5052448;28;20090;-71
2022/06/20 06:24:19;;;;;;;9.35;2.38;;;;;;;14.54;70.65;101751.91;5052418;28;20032;-71
2022/06/20 06:26:48;;;;;;;13.00;3.20;;;;;;;14.63;70.38;101752.94;5052514;28;20034;-70
2022/06/20 06:29:19;;;;;;;9.82;2.25;;;;;;;14.70;69.61;101758.53;5051878;28;20111;-69
2022/06/20 06:31:46;;;;;;;7.82;2.15;;;;;;;14.87;70.70;101744.41;5052488;28;20029;-69
2022/06/20 06:34:22;;;;;;;8.10;2.13;;;;;;;15.03;70.29;101746.47;5051950;28;20036;-71
2022/06/20 06:36:57;;;;;;;11.90;2.65;;;;;;;15.24;69.54;101753.44;5051990;28;20076;-70
2022/06/20 06:39:36;;;;;;;11.13;2.53;;;;;;;15.59;69.34;101746.50;5052071;28;20044;-69
2022/06/20 06:42:08;;;;;;;12.90;2.85;;;;;;;15.82;66.85;101750.50;5051565;28;20025;-69
2022/06/20 06:44:39;;;;;;;7.28;2.22;;;;;;;16.13;65.67;101752.81;5052405;28;20025;-69
2022/06/20 06:47:10;;;;;;;9.95;2.38;;;;;;;16.52;63.90;101760.50;5051482;28;20489;-69
2022/06/20 06:49:44;;;;;;;8.07;2.13;;;;;;;16.82;62.74;101765.59;5051068;28;20064;-69
2022/06/20 06:52:20;;;;;;;7.60;2.20;;;;;;;16.75;61.75;101763.56;5050431;28;20036;-71
2022/06/20 06:54:56;;;;;;;8.98;2.03;;;;;;;16.71;61.12;101764.03;5052228;28;20025;-71
2022/06/20 06:57:35;;;;;;;8.70;2.13;;;;;;;16.66;61.97;101767.19;5050836;28;20108;-69
2022/06/20 07:00:03;;;;;;;15.07;2.47;;;;;;;16.77;61.89;101773.31;5051613;28;20443;-71
2022/06/20 07:02:35;;;;;;;10.32;2.55;;;;;;;16.87;62.35;101766.84;5052083;28;20036;-71
2022/06/20 07:05:28;;;;;;;14.25;2.38;;;;;;;16.88;61.70;101768.56;5050564;28;20136;-72
2022/06/20 07:08:17;;;;;;;11.55;2.75;;;;;;;16.89;61.65;101774.75;5051484;28;20489;-74
2022/06/20 07:10:42;;;;;;;8.60;2.58;;;;;;;16.87;62.22;101774.09;5051754;28;20029;-70
2022/06/20 07:13:22;;;;;;;10.38;2.88;;;;;;;17.04;62.90;101772.34;5051729;28;20039;-71
2022/06/20 07:15:53;;;;;;;9.05;2.25;;;;;;;17.22;61.12;101774.94;5052288;28;20060;-71
2022/06/20 07:18:41;;;;;;;12.23;2.20;;;;;;;17.50;59.74;101777.44;5051981;28;20029;-71
2022/06/20 07:21:09;;;;;;;8.98;2.53;;;;;;;17.68;58.92;101778.19;5051782;28;20493;-72
2022/06/20 07:23:34;;;;;;;7.20;2.30;;;;;;;17.87;57.55;101773.50;5052099;28;20048;-79
2022/06/20 07:26:03;;;;;;;9.93;2.63;;;;;;;18.11;57.86;101767.38;5051473;28;20469;-76
2022/06/20 07:28:43;;;;;;;8.88;2.20;;;;;;;18.09;57.92;101766.69;5051848;28;20033;-75
2022/06/20 07:31:34;;;;;;;11.35;2.42;;;;;;;18.27;57.79;101769.22;5051714;28;20033;-75
2022/06/20 07:34:09;;;;;;;8.07;2.28;;;;;;;18.26;57.22;101768.41;5051138;28;20384;-75
2022/06/20 07:36:57;;;;;;;10.85;2.50;;;;;;;18.37;57.25;101774.47;5051676;28;20065;-79
2022/06/20 07:39:24;;;;;;;7.25;1.90;;;;;;;18.15;55.75;101769.56;5051865;28;20029;-76
2022/06/20 07:42:21;;;;;;;7.30;2.10;;;;;;;17.86;57.02;101782.59;5051595;28;20074;-75
2022/06/20 07:45:00;;;;;;;8.63;2.55;;;;;;;17.65;57.26;101789.25;5053864;28;20040;-78
2022/06/20 07:47:44;;;;;;;8.63;2.28;;;;;;;17.44;58.09;101789.69;5055297;28;20118;-76
2022/06/20 07:50:16;;;;;;;8.68;2.75;;;;;;;17.56;60.02;101793.78;5055184;28;20029;-77
2022/06/20 07:52:59;;;;;;;6.63;1.92;;;;;;;17.93;59.25;101789.88;5055430;28;20021;-77
2022/06/20 07:55:31;;;;;;;8.90;2.53;;;;;;;17.91;56.43;101791.06;5039026;28;20036;-75
2022/06/20 07:58:11;;;;;;;13.45;2.53;;;;;;;17.87;56.43;101795.03;5021343;28;20059;-76
2022/06/20 08:00:51;;;;;;;10.87;2.40;;;;;;;17.89;56.21;101793.91;5037315;28;20052;-78
2022/06/20 08:03:42;;;;;;;11.60;2.17;;;;;;;17.91;55.66;101796.44;5053948;28;20411;-79
2022/06/20 08:06:26;;;;;;;7.97;3.20;;;;;;;17.96;56.31;101786.03;5053225;28;20033;-81
2022/06/20 08:09:07;;;;;;;10.00;2.33;;;;;;;18.01;55.50;101794.44;5055166;28;20021;-79
2022/06/20 08:11:51;;;;;;;12.40;2.80;;;;;;;18.09;55.58;101794.47;5055180;28;20361;-79
2022/06/20 08:14:16;;;;;;;6.97;1.90;;;;;;;18.22;54.42;101791.28;5053551;28;20029;-77
2022/06/20 08:16:45;;;;;;;7.78;2.00;;;;;;;18.23;53.62;101787.59;5053681;28;20457;-78
2022/06/20 08:19:11;;;;;;;7.35;2.10;;;;;;;18.26;53.47;101791.81;5053346;28;20029;-78
2022/06/20 08:21:43;;;;;;;6.80;2.00;;;;;;;18.45;51.80;101793.31;5054454;28;20091;-78
2022/06/20 08:24:44;;;;;;;8.55;1.90;;;;;;;18.69;52.14;101787.09;5052770;28;20032;-77
2022/06/20 08:27:42;;;;;;;10.88;2.15;;;;;;;18.75;50.39;101785.56;5031985;28;20053;-77
2022/06/20 08:30:13;;;;;;;8.95;2.05;;;;;;;18.89;49.11;101787.59;5049301;28;20048;-78
2022/06/20 08:33:00;;;;;;;4.43;1.77;;;;;;;19.09;47.56;101789.91;5053726;28;20033;-79
2022/06/20 08:35:51;;;;;;;7.80;1.90;;;;;;;19.24;46.68;101792.75;5054251;28;20061;-82
2022/06/20 08:38:19;;;;;;;10.15;1.70;;;;;;;19.52;46.13;101791.28;5054708;28;20056;-74
2022/06/20 08:41:20;;;;;;;6.38;1.60;;;;;;;19.54;46.56;101802.75;5054604;28;20112;-78
2022/06/20 08:44:56;;;;;;;4.70;2.05;;;;;;;19.82;46.41;101812.28;5045936;28;20048;-75
2022/06/20 08:47:55;;;;;;;7.28;2.20;;;;;;;20.43;44.61;101815.94;5020510;28;20143;-75
2022/06/20 08:50:52;;;;;;;8.60;2.13;;;;;;;20.91;44.13;101813.00;5015084;28;20469;-77
2022/06/20 08:53:41;;;;;;;7.07;1.95;;;;;;;21.56;42.12;101816.06;5053660;28;20460;-78
2022/06/20 08:56:40;;;;;;;6.75;2.10;;;;;;;22.22;40.55;101820.56;5054231;28;20025;-78
2022/06/20 08:59:34;;;;;;;10.25;2.28;;;;;;;23.23;38.48;101820.41;5052933;28;20338;-78
2022/06/20 09:02:32;;;;;;;9.57;2.35;;;;;;;23.87;37.74;101817.59;5052793;28;20041;-79
2022/06/20 09:05:04;;;;;;;9.68;2.65;;;;;;;24.23;36.03;101827.31;5052414;28;20060;-77
2022/06/20 09:07:41;;;;;;;6.53;1.90;;;;;;;24.53;35.98;101826.91;5052707;28;20040;-75
2022/06/20 09:10:07;;;;;;;10.45;2.47;;;;;;;24.39;37.00;101817.91;5052475;28;20142;-79
2022/06/20 09:13:01;;;;;;;8.82;2.03;;;;;;;24.76;34.92;101835.53;5052312;28;20037;-77
2022/06/20 09:16:08;;;;;;;7.28;2.20;;;;;;;25.03;35.63;101829.25;5037199;28;20037;-76
2022/06/20 09:18:47;;;;;;;8.55;2.35;;;;;;;25.46;35.17;101837.75;5053016;28;20033;-75
2022/06/20 09:21:35;;;;;;;11.27;2.72;;;;;;;25.57;35.71;101838.97;5053622;28;20082;-79
2022/06/20 09:24:18;;;;;;;8.20;2.63;;;;;;;25.62;34.14;101841.91;5053873;28;20029;-77
2022/06/20 09:27:05;;;;;;;10.45;2.47;;;;;;;25.34;33.89;101840.31;5052712;28;20040;-80
2022/06/20 09:29:40;;;;;;;12.25;2.60;;;;;;;25.58;33.32;101845.28;5053534;28;20029;-83
2022/06/20 09:32:37;;;;;;;8.95;2.78;;;;;;;25.92;33.51;101854.16;5053437;28;20028;-76
2022/06/20 09:35:14;;;;;;;12.32;3.00;;;;;;;26.01;34.38;101858.34;5053438;28;20025;-76
2022/06/20 09:38:02;;;;;;;8.85;2.25;;;;;;;25.92;33.12;101854.16;5053440;28;20048;-77
2022/06/20 09:40:41;;;;;;;11.13;2.65;;;;;;;25.51;34.71;101856.19;5049657;28;20052;-75
2022/06/20 09:43:22;;;;;;;11.32;2.83;;;;;;;25.49;35.02;101858.31;5053377;28;20025;-77
2022/06/20 09:46:29;;;;;;;10.68;2.35;;;;;;;25.95;34.52;101859.19;5053577;28;20033;-79
2022/06/20 09:49:18;;;;;;;8.85;2.50;;;;;;;25.39;33.23;101866.06;5042810;28;20037;-78
2022/06/20 09:52:05;;;;;;;10.82;2.80;;;;;;;25.65;33.74;101862.44;5053593;28;20380;-70
2022/06/20 09:54:42;;;;;;;10.50;2.50;;;;;;;25.75;33.30;101871.00;5052396;28;20029;-71
2022/06/20 09:57:34;;;;;;;8.65;2.58;;;;;;;24.87;35.53;101864.03;5052796;28;20041;-70
2022/06/20 10:00:15;;;;;;;12.07;2.80;;;;;;;24.00;36.70;101876.59;5053094;28;20033;-70
2022/06/20 10:02:46;;;;;;;16.55;2.78;;;;;;;22.58;40.76;101879.34;5052383;28;20063;-72
2022/06/20 10:05:33;;;;;;;15.77;3.15;;;;;;;22.03;42.02;101881.63;5052934;28;20033;-71
2022/06/20 10:08:20;;;;;;;16.05;2.85;;;;;;;21.48;42.45;101886.50;5052832;28;20068;-71
2022/06/20 10:11:12;;;;;;;11.30;2.95;;;;;;;21.64;42.56;101890.94;5051584;28;20047;-71
2022/06/20 10:13:55;;;;;;;7.32;2.20;;;;;;;21.27;42.25;101876.41;5052433;28;20264;-71
2022/06/20 10:16:41;;;;;;;11.65;2.33;;;;;;;21.61;43.00;101894.00;5052204;28;20025;-71
2022/06/20 10:19:16;;;;;;;7.93;2.38;;;;;;;22.68;39.95;101884.47;5053005;28;20036;-71
2022/06/20 10:21:55;;;;;;;8.93;2.10;;;;;;;22.10;40.33;101898.00;5051955;28;20025;-70
2022/06/20 10:25:06;;;;;;;12.48;2.60;;;;;;;22.24;39.69;101898.97;5052332;28;20480;-71
2022/06/20 10:27:37;;;;;;;9.73;2.33;;;;;;;22.71;39.11;101889.50;5040642;28;20099;-71
2022/06/20 10:30:08;;;;;;;7.38;2.03;;;;;;;23.71;38.04;101886.69;5052418;28;20037;-71
2022/06/20 10:32:52;;;;;;;;;;;;;;;24.45;36.13;101893.25;5052366;28;20108;-71
2022/06/20 10:35:32;;;;;;;7.97;2.00;;;;;;;25.24;34.19;101899.78;5052534;28;19909;-71
2022/06/20 10:38:12;;;;;;;7.38;1.98;;;;;;;24.88;33.02;101894.81;5052171;28;20531;-71
2022/06/20 10:41:13;;;;;;;9.43;2.40;;;;;;;23.50;36.61;101898.50;5050788;28;20040;-72
2022/06/20 10:44:03;;;;;;;8.73;2.13;;;;;;;24.54;34.26;101904.78;5051131;28;20489;-72
2022/06/20 10:46:40;;;;;;;4.85;1.90;;;;;;;25.15;32.35;101906.50;5051047;28;20029;-72
2022/06/20 10:49:36;;;;;;;8.20;1.88;;;;;;;25.80;30.50;101905.78;5053237;28;20059;-72
2022/06/20 10:52:26;;;;;;;5.70;2.17;;;;;;;26.65;29.76;101910.19;5052868;28;20513;-72
2022/06/20 10:55:15;;;;;;;5.75;1.80;;;;;;;26.65;29.48;101916.50;5052152;28;20119;-73
2022/06/20 10:57:43;;;;;;;7.50;2.10;;;;;;;25.92;29.92;101905.97;5053523;28;20061;-72
2022/06/20 11:00:17;;;;;;;8.13;2.00;;;;;;;25.43;31.47;101914.47;5053692;28;20037;-71
2022/06/20 11:03:04;;;;;;;6.85;1.60;;;;;;;25.73;31.22;101907.69;5052665;28;20029;-72
2022/06/20 11:05:48;;;;;;;4.65;1.75;;;;;;;26.12;30.27;101914.91;5052297;28;20036;-70
2022/06/20 11:08:13;;;;;;;6.25;1.80;;;;;;;26.39;31.03;101922.94;5052503;28;20484;-71
2022/06/20 11:11:23;;;;;;;9.77;2.28;;;;;;;25.27;32.84;101920.31;5052021;28;20033;-72
2022/06/20 11:14:01;;;;;;;7.68;2.20;;;;;;;24.92;33.32;101915.13;5031513;28;20447;-71
2022/06/20 11:16:43;;;;;;;9.93;2.03;;;;;;;24.27;34.96;101918.28;5051639;28;20032;-72
2022/06/20 11:19:11;;;;;;;8.07;2.05;;;;;;;24.53;35.05;101922.97;5054289;28;20037;-70
2022/06/20 11:21:46;;;;;;;8.63;2.42;;;;;;;24.37;35.63;101934.25;5054410;28;20377;-71
2022/06/20 11:24:37;;;;;;;5.60;2.10;;;;;;;23.36;36.44;101927.41;5055120;28;20033;-71
2022/06/20 11:27:21;;;;;;;;;;;;;;;23.30;37.11;101931.75;5056307;28;20389;-71
2022/06/20 11:30:01;;;;;;;7.15;2.30;;;;;;;23.94;35.93;101943.47;5055233;28;19909;-71
2022/06/20 11:32:40;;;;;;;9.48;2.60;;;;;;;24.31;35.88;101933.16;5055891;28;20082;-71
2022/06/20 11:35:35;;;;;;;10.75;2.30;;;;;;;24.49;35.86;101923.59;5038087;28;20108;-70
2022/06/20 11:38:14;;;;;;;10.43;2.70;;;;;;;25.07;34.70;101934.78;5055959;28;20045;-72
2022/06/20 11:40:43;;;;;;;8.50;2.40;;;;;;;25.23;33.64;101941.72;5055548;28;20094;-71
2022/06/20 11:43:26;;;;;;;11.50;2.25;;;;;;;24.11;35.51;101942.09;5056111;28;20082;-70
2022/06/20 11:46:04;;;;;;;7.38;2.17;;;;;;;22.94;39.29;101954.38;5054936;28;20496;-71
2022/06/20 11:48:40;;;;;;;13.88;2.78;;;;;;;21.76;41.71;101948.19;5054522;28;20025;-71
2022/06/20 11:51:21;;;;;;;10.63;2.60;;;;;;;21.00;43.13;101956.31;5055345;28;20028;-71
2022/06/20 11:54:18;;;;;;;18.67;3.03;;;;;;;20.51;45.33;101958.31;5055189;28;20035;-71
2022/06/20 11:57:13;;;;;;;7.15;2.53;;;;;;;20.01;46.30;101957.69;5052435;28;20045;-71
2022/06/20 11:59:50;;;;;;;14.98;3.03;;;;;;;19.58;47.95;101959.78;5049586;28;20041;-71
2022/06/20 12:02:59;;;;;;;9.60;2.70;;;;;;;19.44;48.89;101958.66;5054787;28;20032;-71
2022/06/20 12:05:54;;;;;;;10.98;2.80;;;;;;;19.38;50.06;101964.72;5054753;28;20037;-71
2022/06/20 12:08:44;;;;;;;16.77;2.70;;;;;;;20.03;48.21;101965.63;5054966;28;20056;-70
2022/06/20 12:11:38;;;;;;;13.85;2.72;;;;;;;20.18;47.26;101965.72;5054939;28;20021;-70
2022/06/20 12:14:32;;;;;;;9.63;2.47;;;;;;;19.93;48.18;101968.53;5054871;28;20036;-73
2022/06/20 12:17:21;;;;;;;11.43;2.63;;;;;;;19.74;48.22;101962.47;5037319;28;20065;-70
2022/06/20 12:26:15;;;;;;;11.43;2.80;;;;;;;20.41;51.08;101960.41;5060740;28;20085;-70